Time;durP1;ratioP1;P1;durP2;ratioP2;P2;SDS_P1;SDS_P2;PMS_P1;PMS_P2;Temp;Humidity;BMP_temperature;BMP_pressure;BME280_temperature;BME280_humidity;BME280_pressure;Samples;Min_cycle;Max_cycle;Signal;HPM_P1;HPM_P2
2023/12/06 00:05:25;;;;;;;;;;;;;;;;;;;;;
2023/12/06 00:07:58;;;;;;;49.45;22.20;;;;;;;1.08;100.00;100893.84;6193352;23;20100;-88
2023/12/06 00:10:48;;;;;;;48.17;22.15;;;;;;;1.04;100.00;100889.81;6166661;23;20103;-89
2023/12/06 00:16:39;;;;;;;49.72;22.33;;;;;;;1.10;100.00;100901.72;6215206;23;20226;-89
2023/12/06 00:25:53;;;;;;;51.55;22.33;;;;;;;1.06;100.00;100914.53;6238909;22;20327;-89
2023/12/06 00:38:52;;;;;;;53.47;22.10;;;;;;;1.08;100.00;100917.03;6128380;23;20156;-88
2023/12/06 00:44:48;;;;;;;45.97;20.00;;;;;;;1.04;100.00;100920.03;6128148;23;20072;-88
2023/12/06 00:54:32;;;;;;;49.95;22.48;;;;;;;1.16;100.00;100944.69;6127883;23;20414;-88
2023/12/06 01:04:37;;;;;;;41.70;19.95;;;;;;;1.11;100.00;100938.13;6127989;23;20244;-88
2023/12/06 01:10:36;;;;;;;45.30;20.30;;;;;;;1.13;100.00;100953.03;6125687;23;20009;-88
2023/12/06 01:13:07;;;;;;;40.17;19.33;;;;;;;1.12;100.00;100951.38;6191484;23;20007;-89
2023/12/06 01:18:41;;;;;;;45.20;21.33;;;;;;;1.23;100.00;100975.19;6195464;23;20290;-89
2023/12/06 01:24:32;;;;;;;39.88;19.52;;;;;;;1.10;100.00;100963.19;6216985;23;20050;-88
2023/12/06 01:30:29;;;;;;;38.73;19.37;;;;;;;1.09;100.00;100973.00;6216830;23;20003;-88
2023/12/06 01:42:51;;;;;;;36.72;18.20;;;;;;;1.20;100.00;101001.38;6067388;23;20035;-88
2023/12/06 01:45:17;;;;;;;36.53;19.27;;;;;;;1.14;100.00;100994.81;6042819;23;20035;-88
2023/12/06 01:47:46;;;;;;;37.13;18.75;;;;;;;1.16;100.00;100995.47;6066429;23;20235;-88
2023/12/06 01:57:11;;;;;;;34.43;17.20;;;;;;;1.19;100.00;101005.03;6215361;23;20047;-88
2023/12/06 02:04:50;;;;;;;36.20;17.50;;;;;;;1.25;100.00;101006.28;6246104;23;20043;-89
2023/12/06 02:07:20;;;;;;;31.60;17.08;;;;;;;1.18;100.00;101001.53;6220868;23;20438;-89
2023/12/06 02:09:46;;;;;;;35.45;17.23;;;;;;;1.18;100.00;101006.88;6220496;23;20090;-89
2023/12/06 02:12:49;;;;;;;35.57;17.40;;;;;;;1.22;100.00;101031.47;6247098;23;20035;-88
2023/12/06 02:18:47;;;;;;;28.25;15.93;;;;;;;1.22;100.00;101034.13;6246665;23;20358;-88
2023/12/06 02:21:17;;;;;;;33.63;16.77;;;;;;;1.17;100.00;101023.91;6223116;23;20034;-88
2023/12/06 02:23:47;;;;;;;31.57;16.60;;;;;;;1.20;100.00;101023.59;6219953;23;20007;-89
2023/12/06 02:26:13;;;;;;;32.17;16.88;;;;;;;1.23;100.00;101022.47;6220391;23;20404;-88
2023/12/06 02:39:28;;;;;;;29.20;15.40;;;;;;;1.40;100.00;101029.69;6154299;23;20032;-88
2023/12/06 02:53:25;;;;;;;31.30;15.30;;;;;;;1.50;100.00;101031.44;6156629;23;20013;-89
2023/12/06 03:07:30;;;;;;;26.10;13.63;;;;;;;1.55;100.00;101039.81;6283751;22;21069;-89
2023/12/06 03:14:05;;;;;;;27.27;14.63;;;;;;;1.49;100.00;101017.22;6245027;22;20154;-89
2023/12/06 03:20:20;;;;;;;29.52;15.45;;;;;;;1.56;100.00;101030.81;6246308;23;20026;-88
2023/12/06 04:17:50;;;;;;;;;;;;;;;;;;;;;
2023/12/06 04:23:45;;;;;;;22.33;13.13;;;;;;;1.94;100.00;101077.00;6247946;23;20031;-89
2023/12/06 04:30:12;;;;;;;27.77;14.27;;;;;;;2.03;100.00;101089.47;6247955;23;20030;-89
2023/12/06 04:43:52;;;;;;;28.20;14.77;;;;;;;2.13;100.00;101100.09;6223158;23;20046;-89
2023/12/06 04:50:23;;;;;;;26.60;13.77;;;;;;;2.12;100.00;101108.28;6247673;23;20348;-89
2023/12/06 06:21:50;;;;;;;31.02;15.05;;;;;;;2.40;100.00;101150.03;6186633;22;20451;-87
2023/12/06 06:24:24;;;;;;;32.93;14.97;;;;;;;2.43;100.00;101154.22;6183914;23;20005;-87
2023/12/06 06:26:49;;;;;;;31.05;15.38;;;;;;;2.43;100.00;101168.44;6196350;23;20066;-88
2023/12/06 06:29:15;;;;;;;31.77;14.23;;;;;;;2.48;100.00;101173.38;6219592;23;20008;-88
2023/12/06 06:31:43;;;;;;;25.58;14.35;;;;;;;2.50;100.00;101182.09;6247334;23;20015;-88
2023/12/06 06:34:09;;;;;;;27.00;13.63;;;;;;;2.45;100.00;101179.88;6219891;23;20004;-87
2023/12/06 06:36:36;;;;;;;30.77;14.35;;;;;;;2.49;100.00;101187.59;6246602;23;20012;-86
2023/12/06 06:39:01;;;;;;;27.33;14.27;;;;;;;2.51;100.00;101191.81;6219744;23;20011;-86
2023/12/06 06:41:27;;;;;;;26.88;13.10;;;;;;;2.48;100.00;101193.94;6220125;23;20239;-86
2023/12/06 06:43:52;;;;;;;27.60;13.83;;;;;;;2.54;100.00;101196.00;6219850;23;20010;-86
2023/12/06 06:46:18;;;;;;;26.93;13.13;;;;;;;2.54;100.00;101199.53;6247435;23;20004;-86
2023/12/06 06:48:47;;;;;;;28.40;13.57;;;;;;;2.57;100.00;101209.94;6246501;23;20008;-86
2023/12/06 06:51:13;;;;;;;25.17;13.40;;;;;;;2.49;100.00;101188.44;6220960;23;20008;-86
2023/12/06 06:53:39;;;;;;;28.73;13.70;;;;;;;2.58;100.00;101203.59;6219524;23;20324;-86
2023/12/06 06:56:12;;;;;;;24.53;13.03;;;;;;;2.52;100.00;101189.97;6219284;23;20008;-86
2023/12/06 06:58:41;;;;;;;26.60;13.55;;;;;;;2.56;100.00;101208.25;6220233;23;20012;-86
2023/12/06 07:01:06;;;;;;;28.48;14.07;;;;;;;2.54;100.00;101194.19;6195099;23;20030;-86
2023/12/06 07:03:35;;;;;;;27.38;14.45;;;;;;;2.57;100.00;101201.91;6246282;23;20011;-86
2023/12/06 07:06:03;;;;;;;25.13;14.05;;;;;;;2.58;100.00;101206.28;6246351;23;20059;-86
2023/12/06 07:08:29;;;;;;;26.00;13.10;;;;;;;2.68;100.00;101216.06;6219488;23;20423;-86
2023/12/06 07:10:57;;;;;;;26.85;13.52;;;;;;;2.62;100.00;101207.63;6194612;23;20012;-87
2023/12/06 07:13:23;;;;;;;29.55;14.13;;;;;;;2.59;100.00;101202.59;6219362;23;20019;-86
2023/12/06 07:15:48;;;;;;;25.03;13.20;;;;;;;2.68;100.00;101208.84;6219274;23;20323;-86
2023/12/06 07:18:14;;;;;;;24.48;13.55;;;;;;;2.64;100.00;101204.78;6246286;23;20230;-86
2023/12/06 07:20:39;;;;;;;25.03;14.40;;;;;;;2.66;100.00;101208.19;6220045;23;20043;-86
2023/12/06 07:23:08;;;;;;;23.57;14.20;;;;;;;2.74;100.00;101223.47;6219600;23;20008;-86
2023/12/06 07:25:39;;;;;;;23.50;13.95;;;;;;;2.67;100.00;101212.53;6194559;23;20062;-86
2023/12/06 07:28:05;;;;;;;24.83;14.18;;;;;;;2.75;100.00;101227.84;6220466;23;20012;-86
2023/12/06 07:30:31;;;;;;;26.67;13.77;;;;;;;2.66;100.00;101213.53;6219475;23;20043;-86
2023/12/06 07:32:56;;;;;;;24.83;14.17;;;;;;;2.69;100.00;101221.25;6246254;23;20318;-86
2023/12/06 07:35:25;;;;;;;34.73;16.73;;;;;;;2.62;100.00;101214.84;6219357;23;20411;-86
2023/12/06 07:37:50;;;;;;;28.63;14.80;;;;;;;2.56;100.00;101231.53;6246548;23;20008;-87
2023/12/06 07:40:16;;;;;;;28.03;14.40;;;;;;;2.51;100.00;101245.38;6246041;23;20004;-89
2023/12/06 07:42:50;;;;;;;27.73;14.50;;;;;;;2.39;100.00;101238.56;6220460;23;20004;-85
2023/12/06 07:45:16;;;;;;;24.30;14.07;;;;;;;2.25;100.00;101230.06;6197011;23;20403;-85
2023/12/06 07:47:41;;;;;;;27.30;14.38;;;;;;;2.20;100.00;101239.53;6222131;23;20258;-86
2023/12/06 07:50:08;;;;;;;26.10;14.53;;;;;;;2.16;100.00;101244.34;6221106;23;20386;-86
2023/12/06 07:52:33;;;;;;;30.02;14.85;;;;;;;2.10;100.00;101255.66;6171390;23;20008;-85
2023/12/06 07:55:00;;;;;;;30.50;15.33;;;;;;;1.98;100.00;101241.66;6196411;23;20004;-85
2023/12/06 07:57:28;;;;;;;28.83;14.90;;;;;;;1.93;100.00;101241.22;6221389;23;20407;-85
2023/12/06 07:59:55;;;;;;;29.63;16.55;;;;;;;1.87;100.00;101245.34;6221839;23;20099;-85
2023/12/06 08:02:21;;;;;;;29.98;15.25;;;;;;;1.86;100.00;101254.38;6248564;23;20011;-86
2023/12/06 08:04:46;;;;;;;30.80;16.80;;;;;;;1.88;100.00;101262.25;6221154;23;20016;-85
2023/12/06 08:07:12;;;;;;;35.53;16.73;;;;;;;1.78;100.00;101256.13;6248277;23;20004;-86
2023/12/06 08:09:39;;;;;;;33.17;16.70;;;;;;;1.73;100.00;101259.22;6248967;23;20004;-85
2023/12/06 08:12:06;;;;;;;30.57;15.70;;;;;;;1.77;100.00;101265.13;6221713;23;20426;-85
2023/12/06 08:14:31;;;;;;;30.63;16.35;;;;;;;1.65;100.00;101249.25;6196052;23;20251;-85
2023/12/06 08:16:57;;;;;;;32.42;16.15;;;;;;;1.68;100.00;101265.03;6222147;23;20478;-85
2023/12/06 08:19:22;;;;;;;36.17;17.23;;;;;;;1.64;100.00;101271.66;6221159;23;20114;-85
2023/12/06 08:21:47;;;;;;;30.40;16.67;;;;;;;1.70;100.00;101283.59;6220999;23;20004;-87
2023/12/06 08:24:13;;;;;;;35.17;16.60;;;;;;;1.71;100.00;101271.91;6196059;23;20461;-86
2023/12/06 08:30:06;;;;;;;34.63;16.58;;;;;;;1.78;100.00;101290.91;6247578;23;20016;-86
2023/12/06 08:32:39;;;;;;;28.63;15.38;;;;;;;1.73;100.00;101288.66;6220537;23;20058;-87
2023/12/06 08:35:04;;;;;;;34.05;15.93;;;;;;;1.79;100.00;101295.22;6220679;23;20004;-87
2023/12/06 08:37:50;;;;;;;33.37;16.00;;;;;;;1.73;100.00;101286.81;6220386;23;20004;-87
2023/12/06 08:40:26;;;;;;;;;;;;;;;;;;;;;
2023/12/06 08:42:54;;;;;;;33.10;15.48;;;;;;;1.81;100.00;101287.91;6248264;23;20087;-92
2023/12/06 08:45:22;;;;;;;32.33;16.30;;;;;;;1.81;100.00;101285.25;6220728;23;20016;-88
2023/12/06 08:47:48;;;;;;;32.35;15.95;;;;;;;1.88;100.00;101300.56;6196576;23;20243;-87
2023/12/06 08:50:14;;;;;;;32.85;16.83;;;;;;;1.86;100.00;101297.19;6247752;23;20066;-87
2023/12/06 08:52:44;;;;;;;31.10;14.93;;;;;;;1.91;100.00;101304.78;6246088;23;20019;-88
2023/12/06 08:55:13;;;;;;;32.03;16.13;;;;;;;1.95;100.00;101306.19;6221478;23;20298;-87
2023/12/06 08:57:39;;;;;;;32.58;15.60;;;;;;;1.97;100.00;101308.72;6221441;23;20047;-87
2023/12/06 09:00:11;;;;;;;32.33;15.98;;;;;;;2.05;100.00;101319.50;6220375;23;20014;-87
2023/12/06 09:02:42;;;;;;;33.83;16.02;;;;;;;2.12;100.00;101327.78;6197963;23;20023;-87
2023/12/06 09:05:11;;;;;;;36.43;15.33;;;;;;;2.15;100.00;101330.16;6220567;23;20000;-87
2023/12/06 09:07:48;;;;;;;31.92;15.27;;;;;;;2.14;100.00;101318.63;6220665;23;20239;-87
2023/12/06 09:10:13;;;;;;;30.13;14.70;;;;;;;2.25;100.00;101328.28;6247750;23;20304;-87
2023/12/06 09:12:39;;;;;;;29.17;15.13;;;;;;;2.22;100.00;101313.34;6221093;23;20030;-87
2023/12/06 09:15:07;;;;;;;33.90;15.60;;;;;;;2.29;100.00;101318.97;6247247;23;20214;-87
2023/12/06 09:17:36;;;;;;;31.47;15.00;;;;;;;2.36;100.00;101330.78;6220291;23;20004;-88
2023/12/06 09:20:15;;;;;;;;;;;;;;;;;;;;;
2023/12/06 09:22:51;;;;;;;27.13;14.75;;;;;;;2.47;100.00;101324.34;6248478;23;20084;-88
2023/12/06 09:25:22;;;;;;;32.10;14.13;;;;;;;2.55;100.00;101326.28;6221992;23;20054;-86
2023/12/06 09:31:47;;;;;;;27.43;12.63;;;;;;;2.76;100.00;101339.38;6246675;23;20069;-87
2023/12/06 09:34:13;;;;;;;31.65;12.63;;;;;;;2.77;100.00;101335.72;6221762;23;20258;-87
2023/12/06 09:36:39;;;;;;;22.35;11.68;;;;;;;2.89;100.00;101341.69;6248883;23;20008;-87
2023/12/06 09:39:10;;;;;;;26.63;12.63;;;;;;;2.97;100.00;101339.09;6222029;23;20426;-87
2023/12/06 09:52:18;;;;;;;17.20;9.43;;;;;;;4.11;100.00;101365.06;6247174;23;20032;-86
2023/12/06 10:23:00;;;;;;;16.05;8.27;;;;;;;5.63;100.00;101365.84;6246067;23;20012;-86
2023/12/06 10:29:18;;;;;;;17.83;7.83;;;;;;;5.69;100.00;101365.16;6247109;23;20003;-86
2023/12/06 10:38:55;;;;;;;13.02;7.00;;;;;;;5.52;100.00;101368.88;6246549;23;20453;-86
2023/12/06 10:48:45;;;;;;;16.30;7.75;;;;;;;5.70;100.00;101356.09;6280019;22;20019;-88
2023/12/06 10:51:12;;;;;;;15.13;7.50;;;;;;;5.82;100.00;101353.03;6247099;23;20039;-87
2023/12/06 10:53:45;;;;;;;15.40;8.20;;;;;;;5.84;100.00;101365.31;6219209;23;20067;-86
2023/12/06 10:56:14;;;;;;;15.68;7.72;;;;;;;5.83;100.00;101350.19;6219572;23;20027;-86
2023/12/06 10:58:40;;;;;;;14.13;7.20;;;;;;;5.87;100.00;101338.03;6219173;23;20036;-86
2023/12/06 11:01:15;;;;;;;14.98;7.30;;;;;;;6.05;100.00;101343.22;6194254;23;20008;-86
2023/12/06 11:03:40;;;;;;;15.38;7.35;;;;;;;6.16;100.00;101352.81;6220001;23;20054;-86
2023/12/06 11:06:35;;;;;;;13.73;7.40;;;;;;;6.32;100.00;101349.22;6218750;23;20012;-86
2023/12/06 11:09:24;;;;;;;15.82;7.10;;;;;;;6.44;100.00;101369.38;6216470;23;20070;-87
2023/12/06 11:15:27;;;;;;;12.80;6.70;;;;;;;6.20;100.00;101348.75;6184018;23;20016;-87
2023/12/06 11:21:22;;;;;;;14.77;6.78;;;;;;;6.46;100.00;101353.84;6126467;23;20065;-87
2023/12/06 11:56:09;;;;;;;12.07;4.88;;;;;;;13.79;75.31;101358.50;6248062;23;20078;-87
2023/12/06 12:03:06;;;;;;;9.50;4.53;;;;;;;19.27;54.67;101342.78;6248194;23;20135;-87
2023/12/06 12:08:53;;;;;;;8.27;4.57;;;;;;;20.06;40.82;101357.66;6247716;23;20003;-85
2023/12/06 12:11:19;;;;;;;6.57;4.43;;;;;;;20.45;40.32;101353.72;6220822;23;20012;-85
2023/12/06 12:13:44;;;;;;;10.77;5.17;;;;;;;21.14;39.04;101374.63;6220538;23;20510;-85
2023/12/06 12:16:15;;;;;;;7.32;4.68;;;;;;;21.82;37.32;101370.78;6221454;23;20259;-85
2023/12/06 12:18:43;;;;;;;9.18;5.35;;;;;;;22.39;35.94;101354.06;6222836;23;20004;-85
2023/12/06 12:21:26;;;;;;;7.33;5.17;;;;;;;21.93;41.13;101355.00;6196910;23;20004;-85
2023/12/06 12:51:17;;;;;;;8.43;5.57;;;;;;;13.89;45.09;101344.31;6246891;22;20027;-85
2023/12/06 12:54:12;;;;;;;7.90;5.10;;;;;;;12.69;48.75;101356.13;6195799;23;20027;-86
2023/12/06 13:45:34;;;;;;;9.70;4.00;;;;;;;14.42;56.73;101358.44;6245644;23;20008;-85
2023/12/06 13:51:54;;;;;;;9.68;4.30;;;;;;;15.01;51.24;101369.69;6246388;22;20026;-85
2023/12/06 13:54:23;;;;;;;9.13;4.28;;;;;;;13.17;54.62;101371.97;6195115;23;20323;-85
2023/12/06 13:56:48;;;;;;;12.38;4.75;;;;;;;11.50;58.59;101370.59;6194801;23;20036;-85
2023/12/06 14:02:55;;;;;;;10.02;4.20;;;;;;;9.81;70.82;101377.44;6246211;23;20012;-85
2023/12/06 14:08:48;;;;;;;4.07;1.67;;;;;;;8.91;71.50;101390.56;6246707;23;20015;-86
2023/12/06 14:21:55;;;;;;;4.10;2.05;;;;;;;7.83;83.32;101403.66;6154304;23;20052;-86
2023/12/06 14:35:03;;;;;;;5.20;2.30;;;;;;;6.91;90.94;101426.09;6154178;23;20149;-86
2023/12/06 14:41:53;;;;;;;4.80;1.98;;;;;;;7.05;92.98;101421.81;6153854;23;20059;-87
2023/12/06 14:51:21;;;;;;;7.93;2.92;;;;;;;6.71;94.64;101428.41;6208991;22;20047;-86
2023/12/06 14:57:25;;;;;;;6.40;2.72;;;;;;;7.31;96.61;101443.91;6216134;23;20039;-85
2023/12/06 15:10:22;;;;;;;4.85;2.67;;;;;;;10.27;81.04;101446.56;6214572;23;20104;-86
2023/12/06 15:17:06;;;;;;;3.35;2.20;;;;;;;9.71;80.61;101458.25;6215912;23;20039;-86
2023/12/06 15:33:15;;;;;;;4.50;2.13;;;;;;;5.60;100.00;101496.25;6214438;23;20434;-85
2023/12/06 16:06:27;;;;;;;4.45;2.13;;;;;;;2.92;100.00;101524.53;6127101;23;20018;-86
2023/12/06 16:12:29;;;;;;;6.22;1.92;;;;;;;2.69;100.00;101534.78;6127817;23;20017;-86
2023/12/06 17:04:29;;;;;;;4.60;2.20;;;;;;;1.67;100.00;101605.75;6247585;23;20354;-85
2023/12/06 17:17:13;;;;;;;7.60;2.90;;;;;;;1.51;100.00;101614.31;6245925;23;20303;-85
2023/12/06 17:23:10;;;;;;;6.22;3.40;;;;;;;1.46;100.00;101621.91;6248391;23;20022;-85
2023/12/06 17:25:35;;;;;;;6.03;3.10;;;;;;;1.46;100.00;101621.91;6195994;23;20015;-85
2023/12/06 17:28:01;;;;;;;8.53;3.40;;;;;;;1.44;100.00;101621.19;6248253;23;20034;-85
2023/12/06 18:17:22;;;;;;;7.88;4.97;;;;;;;1.45;100.00;101654.97;6246525;23;20074;-87
2023/12/06 18:19:49;;;;;;;9.50;5.30;;;;;;;1.37;100.00;101652.13;6214910;23;20027;-85
2023/12/06 18:22:16;;;;;;;12.15;5.60;;;;;;;1.36;100.00;101666.50;6217213;23;20015;-85
2023/12/06 18:56:07;;;;;;;13.07;5.50;;;;;;;1.06;100.00;101689.56;6215344;23;20048;-85
2023/12/06 19:26:59;;;;;;;12.65;6.13;;;;;;;1.16;100.00;101697.63;6284697;22;20044;-85
2023/12/06 19:29:25;;;;;;;13.23;6.15;;;;;;;1.02;100.00;101694.31;6219202;23;20020;-85
2023/12/06 19:31:51;;;;;;;12.70;6.30;;;;;;;0.90;100.00;101687.38;6246793;23;20016;-85
2023/12/06 19:38:11;;;;;;;13.52;6.45;;;;;;;0.73;100.00;101695.97;6245550;23;20039;-85
2023/12/06 19:54:23;;;;;;;13.68;7.32;;;;;;;0.38;100.00;101732.66;6246851;23;20066;-85
2023/12/06 20:20:53;;;;;;;13.30;7.35;;;;;;;0.20;100.00;101742.19;6247475;23;20095;-87
2023/12/06 20:26:55;;;;;;;14.95;7.80;;;;;;;0.14;100.00;101739.03;6247857;23;20026;-86
2023/12/06 20:29:22;;;;;;;16.30;7.70;;;;;;;0.10;100.00;101736.75;6195611;23;20036;-86
2023/12/06 20:31:48;;;;;;;14.18;8.00;;;;;;;0.07;100.00;101739.66;6172373;23;20015;-87
2023/12/06 20:34:13;;;;;;;16.65;8.13;;;;;;;-0.01;100.00;101743.81;6171152;23;20016;-86
2023/12/06 20:36:39;;;;;;;16.42;7.82;;;;;;;-0.05;100.00;101741.50;6195873;23;20134;-86
2023/12/06 20:39:15;;;;;;;16.67;8.10;;;;;;;-0.07;100.00;101738.13;6171748;23;20058;-87
2023/12/06 20:42:18;;;;;;;14.70;8.68;;;;;;;-0.08;100.00;101736.44;6098243;23;20031;-86
2023/12/06 20:44:44;;;;;;;16.02;7.97;;;;;;;-0.08;100.00;101741.75;6088387;23;20021;-86
2023/12/06 20:47:16;;;;;;;13.33;8.20;;;;;;;-0.16;100.00;101742.38;6221414;23;20091;-87
2023/12/06 20:50:32;;;;;;;15.05;8.05;;;;;;;-0.13;100.00;101751.94;6221229;23;20279;-87
2023/12/06 20:56:24;;;;;;;14.63;8.25;;;;;;;-0.19;100.00;101758.63;6247764;23;20030;-86
2023/12/06 20:58:50;;;;;;;13.65;8.35;;;;;;;-0.23;100.00;101747.34;6196427;23;20012;-86
2023/12/06 21:01:16;;;;;;;18.97;9.10;;;;;;;-0.27;100.00;101742.38;6248701;23;20083;-86
2023/12/06 21:03:46;;;;;;;15.88;8.55;;;;;;;-0.29;100.00;101747.00;6222661;23;20247;-86
2023/12/06 21:06:16;;;;;;;17.70;9.95;;;;;;;-0.31;100.00;101747.13;6196696;23;20008;-87
2023/12/06 21:08:41;;;;;;;17.35;9.90;;;;;;;-0.33;100.00;101743.72;6222187;23;20418;-87
2023/12/06 21:11:07;;;;;;;20.20;9.77;;;;;;;-0.32;100.00;101750.75;6221527;23;20004;-87
2023/12/06 21:13:43;;;;;;;20.93;9.77;;;;;;;-0.29;100.00;101758.50;6220469;23;20437;-87
2023/12/06 21:20:05;;;;;;;19.38;9.45;;;;;;;-0.38;100.00;101761.91;6247287;23;20057;-86
2023/12/06 21:29:22;;;;;;;17.63;10.80;;;;;;;-0.24;100.00;101758.16;6279509;22;20313;-86
2023/12/06 21:35:09;;;;;;;18.65;11.25;;;;;;;-0.16;100.00;101770.88;6247213;23;20014;-88
2023/12/06 21:37:35;;;;;;;20.23;11.53;;;;;;;-0.15;100.00;101761.91;6195226;23;20012;-88
2023/12/06 21:40:04;;;;;;;21.90;12.40;;;;;;;-0.19;100.00;101759.47;6196286;23;20389;-89
2023/12/06 21:42:31;;;;;;;23.93;12.30;;;;;;;-0.18;100.00;101762.97;6248680;23;20427;-91
2023/12/06 21:44:57;;;;;;;19.85;11.70;;;;;;;-0.22;100.00;101748.22;6198463;23;20239;-91
2023/12/06 21:47:23;;;;;;;24.42;12.07;;;;;;;-0.21;100.00;101755.22;6223691;23;20456;-91
2023/12/06 21:49:51;;;;;;;21.53;11.80;;;;;;;-0.25;100.00;101756.44;6197243;23;20437;-91
2023/12/06 21:52:21;;;;;;;25.27;13.40;;;;;;;-0.27;100.00;101755.72;6195833;23;20031;-91
2023/12/06 21:54:58;;;;;;;23.80;12.63;;;;;;;-0.23;100.00;101768.69;6220216;23;20008;-91
2023/12/06 21:57:39;;;;;;;20.42;12.60;;;;;;;-0.27;100.00;101756.56;6196899;23;20012;-91
2023/12/06 22:00:05;;;;;;;23.47;11.23;;;;;;;-0.17;100.00;101775.34;6247199;23;20008;-90
2023/12/06 22:03:07;;;;;;;22.70;12.40;;;;;;;-0.10;100.00;101783.72;6195373;23;20019;-91
2023/12/06 22:09:45;;;;;;;20.80;11.65;;;;;;;-0.10;100.00;101786.41;6247034;23;20142;-91
2023/12/06 22:25:51;;;;;;;22.80;11.82;;;;;;;-0.13;100.00;101800.81;6245718;23;20056;-92
2023/12/06 22:28:16;;;;;;;24.43;13.57;;;;;;;-0.13;100.00;101799.97;6195488;23;20494;-91
2023/12/06 22:30:43;;;;;;;28.23;12.85;;;;;;;-0.17;100.00;101783.34;6192680;22;20054;-91
2023/12/06 22:33:11;;;;;;;25.30;12.83;;;;;;;-0.18;100.00;101795.00;6245492;23;20015;-91
2023/12/06 22:35:47;;;;;;;;;;;;;;;;;;;;;
2023/12/06 22:38:20;;;;;;;25.23;13.82;;;;;;;-0.09;100.00;101812.09;6247569;23;20400;-91
2023/12/06 22:40:46;;;;;;;29.10;14.45;;;;;;;-0.15;100.00;101796.56;6220087;23;20004;-92
2023/12/06 22:43:17;;;;;;;24.65;13.95;;;;;;;-0.18;100.00;101797.66;6220074;23;20070;-92
2023/12/06 22:45:47;;;;;;;26.20;13.20;;;;;;;-0.23;100.00;101797.19;6246642;23;20008;-91
2023/12/06 22:48:17;;;;;;;26.05;14.15;;;;;;;-0.23;100.00;101791.84;6247248;23;20219;-92
2023/12/06 22:50:42;;;;;;;23.27;13.75;;;;;;;-0.25;100.00;101793.78;6171293;23;20004;-92
2023/12/06 22:53:17;;;;;;;27.10;14.33;;;;;;;-0.30;100.00;101802.16;6219602;23;20334;-92
2023/12/06 22:56:02;;;;;;;27.00;13.85;;;;;;;-0.33;100.00;101810.38;6154883;23;20284;-92
2023/12/06 23:01:50;;;;;;;26.05;13.80;;;;;;;-0.25;100.00;101825.78;6154409;23;20012;-92
2023/12/06 23:04:18;;;;;;;28.88;14.15;;;;;;;-0.33;100.00;101815.72;6129216;23;20021;-92
2023/12/06 23:06:44;;;;;;;32.13;14.27;;;;;;;-0.33;100.00;101812.22;6129335;23;20010;-92
2023/12/06 23:09:09;;;;;;;30.02;14.45;;;;;;;-0.39;100.00;101808.22;6129059;23;20259;-89
2023/12/06 23:11:35;;;;;;;27.53;15.13;;;;;;;-0.43;100.00;101809.41;6153582;23;20440;-89
2023/12/06 23:14:03;;;;;;;31.80;15.23;;;;;;;-0.45;100.00;101814.03;6188253;23;20008;-89
2023/12/06 23:16:28;;;;;;;32.47;15.33;;;;;;;-0.50;100.00;101811.72;6194709;23;20323;-89
2023/12/06 23:19:01;;;;;;;29.88;14.98;;;;;;;-0.50;100.00;101817.06;6220033;23;20061;-89
2023/12/06 23:21:26;;;;;;;27.17;14.93;;;;;;;-0.58;100.00;101812.28;6219921;23;20063;-89
2023/12/06 23:24:00;;;;;;;30.92;14.63;;;;;;;-0.60;100.00;101827.56;6220183;23;20280;-89
2023/12/06 23:26:25;;;;;;;24.83;13.70;;;;;;;-0.75;100.00;101820.78;6196946;23;20019;-89
2023/12/06 23:28:54;;;;;;;24.73;13.45;;;;;;;-0.88;100.00;101810.19;6224329;23;20239;-89
2023/12/06 23:31:19;;;;;;;25.52;13.70;;;;;;;-0.92;100.00;101820.22;6225918;23;20016;-94
2023/12/06 23:33:45;;;;;;;27.40;14.53;;;;;;;-0.98;100.00;101807.34;6222646;23;20008;-89
2023/12/06 23:36:10;;;;;;;25.30;14.20;;;;;;;-0.99;100.00;101820.81;6221606;23;20008;-89
2023/12/06 23:38:39;;;;;;;26.75;13.07;;;;;;;-1.06;100.00;101817.75;6220223;23;20445;-89
2023/12/06 23:41:11;;;;;;;23.90;12.98;;;;;;;-1.13;100.00;101814.69;6219730;23;20012;-88
2023/12/06 23:43:40;;;;;;;26.40;13.13;;;;;;;-1.14;100.00;101817.47;6220730;23;20008;-89
2023/12/06 23:46:14;;;;;;;29.48;13.00;;;;;;;-1.25;100.00;101818.28;6246380;23;20454;-89
2023/12/06 23:48:39;;;;;;;27.45;12.75;;;;;;;-1.30;100.00;101815.09;6220893;23;20087;-89
2023/12/06 23:51:08;;;;;;;26.63;13.03;;;;;;;-1.30;100.00;101829.28;6219344;23;20492;-89
2023/12/06 23:53:38;;;;;;;25.92;13.93;;;;;;;-1.33;100.00;101825.97;6220362;23;20062;-89
2023/12/06 23:56:09;;;;;;;22.77;11.70;;;;;;;-1.32;100.00;101841.00;6247645;23;20075;-89
2023/12/06 23:58:39;;;;;;;25.13;13.70;;;;;;;-1.47;100.00;101813.72;6221492;23;20042;-89
